Time;durP1;ratioP1;P1;durP2;ratioP2;P2;SDS_P1;SDS_P2;PMS_P1;PMS_P2;Temp;Humidity;BMP_temperature;BMP_pressure;BME280_temperature;BME280_humidity;BME280_pressure;Samples;Min_cycle;Max_cycle;Signal;HPM_P1;HPM_P2
2021/01/24 00:01:36;;;;;;;26.73;12.50;;;;;;;;;;5113631;28;20580;-74
2021/01/24 00:04:40;;;;;;;24.27;12.93;;;;;;;;;;5098911;28;20227;-74
2021/01/24 00:07:45;;;;;;;28.27;13.27;;;;;;;;;;5092769;28;20279;-75
2021/01/24 00:10:50;;;;;;;24.87;12.10;;;;;;;;;;5100169;28;20270;-74
2021/01/24 00:13:55;;;;;;;24.50;12.67;;;;;;;;;;5100147;28;20244;-75
2021/01/24 00:16:59;;;;;;;24.33;11.77;;;;;;;;;;5100060;28;20204;-74
2021/01/24 00:20:05;;;;;;;25.57;12.40;;;;;;;;;;5100417;28;20213;-75
2021/01/24 00:23:10;;;;;;;25.67;12.43;;;;;;;;;;5101528;28;20361;-74
2021/01/24 00:26:15;;;;;;;25.47;11.60;;;;;;;;;;5101497;28;20197;-74
2021/01/24 00:29:20;;;;;;;26.10;12.17;;;;;;;;;;5114125;28;20204;-73
2021/01/24 00:32:24;;;;;;;25.43;11.97;;;;;;;;;;5093945;28;20228;-73
2021/01/24 00:35:29;;;;;;;26.63;11.80;;;;;;;;;;5101336;28;20275;-73
2021/01/24 00:38:34;;;;;;;27.40;12.30;;;;;;;;;;5101932;28;20216;-73
2021/01/24 00:41:39;;;;;;;21.13;11.17;;;;;;;;;;5104823;28;20228;-73
2021/01/24 00:44:44;;;;;;;19.13;9.77;;;;;;;;;;5092694;28;20216;-73
2021/01/24 00:47:48;;;;;;;21.20;10.20;;;;;;;;;;5101885;28;20224;-73
2021/01/24 00:50:54;;;;;;;21.57;9.80;;;;;;;;;;5094012;28;20251;-73
2021/01/24 00:54:00;;;;;;;19.33;9.40;;;;;;;;;;5101204;28;20758;-73
2021/01/24 00:57:07;;;;;;;21.10;10.53;;;;;;;;;;5100697;28;20208;-74
2021/01/24 01:00:12;;;;;;;28.47;12.47;;;;;;;;;;5113240;28;20338;-73
2021/01/24 01:03:17;;;;;;;22.97;10.60;;;;;;;;;;5104231;28;20435;-73
2021/01/24 01:06:21;;;;;;;22.00;10.00;;;;;;;;;;5104640;28;20328;-73
2021/01/24 01:09:26;;;;;;;21.13;9.47;;;;;;;;;;5100570;28;20272;-72
2021/01/24 01:12:31;;;;;;;20.90;10.13;;;;;;;;;;5100646;28;20256;-73
2021/01/24 01:15:36;;;;;;;23.77;11.07;;;;;;;;;;5083085;28;20346;-72
2021/01/24 01:18:41;;;;;;;22.80;10.63;;;;;;;;;;5082474;28;20247;-73
2021/01/24 01:21:45;;;;;;;22.37;10.87;;;;;;;;;;5100309;28;20720;-73
2021/01/24 01:24:50;;;;;;;20.33;9.23;;;;;;;;;;5100327;28;20584;-73
2021/01/24 01:27:56;;;;;;;24.67;11.83;;;;;;;;;;5098536;28;20263;-74
2021/01/24 01:31:00;;;;;;;23.57;10.63;;;;;;;;;;5094016;28;20267;-73
2021/01/24 01:34:05;;;;;;;24.33;9.83;;;;;;;;;;5099804;28;20306;-74
2021/01/24 01:37:10;;;;;;;27.80;11.20;;;;;;;;;;5100256;28;20240;-73
2021/01/24 01:40:15;;;;;;;27.80;12.03;;;;;;;;;;5099591;28;20350;-73
2021/01/24 01:43:20;;;;;;;26.00;11.73;;;;;;;;;;5099944;28;20232;-73
2021/01/24 01:46:26;;;;;;;26.07;10.73;;;;;;;;;;5112528;28;20225;-73
2021/01/24 01:49:31;;;;;;;22.00;10.07;;;;;;;;;;5100265;28;20291;-72
2021/01/24 01:52:35;;;;;;;24.37;10.73;;;;;;;;;;5098831;28;20233;-75
2021/01/24 01:55:40;;;;;;;24.07;10.40;;;;;;;;;;5101637;28;20240;-74
2021/01/24 01:58:45;;;;;;;23.63;11.30;;;;;;;;;;5100121;28;20579;-75
2021/01/24 02:01:59;;;;;;;23.27;10.73;;;;;;;;;;5111839;28;20225;-74
2021/01/24 02:05:05;;;;;;;24.93;11.20;;;;;;;;;;5100488;28;20236;-75
2021/01/24 02:08:11;;;;;;;27.17;11.57;;;;;;;;;;5093909;28;20200;-75
2021/01/24 02:11:18;;;;;;;25.13;10.87;;;;;;;;;;5099869;28;20723;-75
2021/01/24 02:14:26;;;;;;;29.17;12.33;;;;;;;;;;5099876;28;20281;-75
2021/01/24 02:17:34;;;;;;;24.53;10.80;;;;;;;;;;5099786;28;20258;-75
2021/01/24 02:20:42;;;;;;;23.47;10.77;;;;;;;;;;5099289;28;20259;-74
2021/01/24 02:23:48;;;;;;;23.47;10.77;;;;;;;;;;5079488;28;20582;-74
2021/01/24 02:27:01;;;;;;;24.13;11.13;;;;;;;;;;5095022;28;20250;-75
2021/01/24 02:30:27;;;;;;;22.87;10.20;;;;;;;;;;5099776;28;20278;-74
2021/01/24 02:33:33;;;;;;;21.33;10.10;;;;;;;;;;5101226;28;20907;-76
2021/01/24 02:36:39;;;;;;;20.83;9.43;;;;;;;;;;5111275;28;20213;-75
2021/01/24 02:39:44;;;;;;;22.47;10.23;;;;;;;;;;5110842;28;20375;-76
2021/01/24 02:42:50;;;;;;;23.00;10.83;;;;;;;;;;5111340;28;20251;-76
2021/01/24 02:45:58;;;;;;;26.30;12.17;;;;;;;;;;5112197;28;20215;-76
2021/01/24 02:49:04;;;;;;;30.13;12.97;;;;;;;;;;5081697;28;20661;-76
2021/01/24 02:52:14;;;;;;;26.60;12.33;;;;;;;;;;5099707;28;20233;-76
2021/01/24 02:55:19;;;;;;;26.03;12.23;;;;;;;;;;5112581;28;20262;-76
2021/01/24 02:58:25;;;;;;;27.17;12.00;;;;;;;;;;5099142;28;20196;-76
2021/01/24 03:01:30;;;;;;;31.47;13.00;;;;;;;;;;5098344;28;20673;-77
2021/01/24 03:04:36;;;;;;;28.20;12.40;;;;;;;;;;5098973;28;20204;-76
2021/01/24 03:07:41;;;;;;;25.60;11.60;;;;;;;;;;5098873;28;20201;-76
2021/01/24 03:10:47;;;;;;;27.10;11.70;;;;;;;;;;5099283;28;20270;-76
2021/01/24 03:13:56;;;;;;;27.77;12.40;;;;;;;;;;5100401;28;20691;-76
2021/01/24 03:17:02;;;;;;;24.83;11.87;;;;;;;;;;5103057;28;20204;-77
2021/01/24 03:20:09;;;;;;;21.83;9.87;;;;;;;;;;5100753;28;20224;-76
2021/01/24 03:23:14;;;;;;;20.57;9.93;;;;;;;;;;5103083;28;20241;-76
2021/01/24 03:26:19;;;;;;;23.77;10.93;;;;;;;;;;5103030;28;20290;-76
2021/01/24 03:29:25;;;;;;;20.57;9.63;;;;;;;;;;5099055;28;20741;-76
2021/01/24 03:32:30;;;;;;;21.47;10.20;;;;;;;;;;5102452;28;20251;-76
2021/01/24 03:35:35;;;;;;;20.97;9.87;;;;;;;;;;5102902;28;21040;-76
2021/01/24 03:38:40;;;;;;;24.47;11.50;;;;;;;;;;5103019;28;20212;-76
2021/01/24 03:41:45;;;;;;;22.43;9.93;;;;;;;;;;5114001;28;20236;-76
2021/01/24 03:44:49;;;;;;;21.30;10.17;;;;;;;;;;5084419;28;20708;-75
2021/01/24 03:47:55;;;;;;;22.80;10.23;;;;;;;;;;5086701;28;20238;-75
2021/01/24 03:51:00;;;;;;;21.77;10.13;;;;;;;;;;5102181;28;20274;-75
2021/01/24 03:54:05;;;;;;;28.33;12.70;;;;;;;;;;5115488;28;20220;-75
2021/01/24 03:57:10;;;;;;;23.37;10.67;;;;;;;;;;5111570;28;20231;-76
2021/01/24 04:00:15;;;;;;;22.83;10.80;;;;;;;;;;5100462;28;20587;-75
2021/01/24 04:03:19;;;;;;;24.07;11.00;;;;;;;;;;5102189;28;20281;-75
2021/01/24 04:06:25;;;;;;;25.50;11.60;;;;;;;;;;5106547;28;20242;-73
2021/01/24 04:09:29;;;;;;;23.30;10.67;;;;;;;;;;5115082;28;20212;-75
2021/01/24 04:12:35;;;;;;;26.60;12.40;;;;;;;;;;5089058;28;20254;-74
2021/01/24 04:15:39;;;;;;;29.63;13.10;;;;;;;;;;5095439;28;20586;-74
2021/01/24 04:18:44;;;;;;;29.50;12.93;;;;;;;;;;5101499;28;20216;-75
2021/01/24 04:21:49;;;;;;;29.73;13.20;;;;;;;;;;5102288;28;20637;-75
2021/01/24 04:24:54;;;;;;;27.70;12.37;;;;;;;;;;5100994;28;20691;-75
2021/01/24 04:27:58;;;;;;;27.13;12.30;;;;;;;;;;5093511;28;20212;-76
2021/01/24 04:31:03;;;;;;;29.40;12.90;;;;;;;;;;5101588;28;20263;-74
2021/01/24 04:34:08;;;;;;;25.27;11.80;;;;;;;;;;5113295;28;20270;-73
2021/01/24 04:37:13;;;;;;;28.30;12.60;;;;;;;;;;5101505;28;20342;-71
2021/01/24 04:40:18;;;;;;;27.53;12.10;;;;;;;;;;5083209;28;20311;-72
2021/01/24 04:43:23;;;;;;;27.10;12.37;;;;;;;;;;5101265;28;20225;-72
2021/01/24 04:46:27;;;;;;;29.93;13.23;;;;;;;;;;5100594;28;20204;-73
2021/01/24 04:49:32;;;;;;;26.10;12.40;;;;;;;;;;5081571;28;20353;-71
2021/01/24 04:52:38;;;;;;;25.63;11.67;;;;;;;;;;5108373;28;20264;-72
2021/01/24 04:55:43;;;;;;;28.87;12.53;;;;;;;;;;5088769;28;20282;-72
2021/01/24 04:58:49;;;;;;;28.27;12.73;;;;;;;;;;5108881;28;20212;-71
2021/01/24 05:01:54;;;;;;;31.93;13.63;;;;;;;;;;5104444;28;20294;-72
2021/01/24 05:04:59;;;;;;;33.50;13.50;;;;;;;;;;5097533;28;20209;-72
2021/01/24 05:08:07;;;;;;;33.03;13.57;;;;;;;;;;5113783;28;20289;-72
2021/01/24 05:11:12;;;;;;;36.70;14.77;;;;;;;;;;5101119;28;20238;-73
2021/01/24 05:14:18;;;;;;;35.53;15.30;;;;;;;;;;5100779;28;20219;-76
2021/01/24 05:17:23;;;;;;;38.47;14.43;;;;;;;;;;5089367;28;20262;-76
2021/01/24 05:20:28;;;;;;;37.40;13.77;;;;;;;;;;5101116;28;20684;-75
2021/01/24 05:23:37;;;;;;;38.53;14.97;;;;;;;;;;5087104;28;20233;-75
2021/01/24 05:26:45;;;;;;;36.47;14.77;;;;;;;;;;5095680;28;20627;-75
2021/01/24 05:29:50;;;;;;;42.63;15.90;;;;;;;;;;5100617;28;20246;-74
2021/01/24 05:32:55;;;;;;;42.67;15.90;;;;;;;;;;5080895;28;20233;-75
2021/01/24 05:35:59;;;;;;;43.23;15.77;;;;;;;;;;5102352;28;20282;-74
2021/01/24 05:39:05;;;;;;;38.40;15.57;;;;;;;;;;5100193;28;20200;-74
2021/01/24 05:42:12;;;;;;;45.40;16.43;;;;;;;;;;5100526;28;20337;-74
2021/01/24 05:45:18;;;;;;;43.20;15.47;;;;;;;;;;5100208;28;20250;-75
2021/01/24 05:48:23;;;;;;;35.83;15.20;;;;;;;;;;5100447;28;20332;-74
2021/01/24 05:51:29;;;;;;;38.10;14.57;;;;;;;;;;5099820;28;20239;-73
2021/01/24 05:54:38;;;;;;;35.50;14.77;;;;;;;;;;5099830;28;20233;-74
2021/01/24 05:57:43;;;;;;;40.07;15.83;;;;;;;;;;5100623;28;20217;-74
2021/01/24 06:00:48;;;;;;;40.27;15.00;;;;;;;;;;5100077;28;20232;-73
2021/01/24 06:03:54;;;;;;;42.30;15.93;;;;;;;;;;5090675;28;20205;-73
2021/01/24 06:06:59;;;;;;;36.63;14.97;;;;;;;;;;5100067;28;20213;-73
2021/01/24 06:10:05;;;;;;;34.77;14.60;;;;;;;;;;5099866;28;20224;-73
2021/01/24 06:13:13;;;;;;;30.07;12.43;;;;;;;;;;5100312;28;20224;-73
2021/01/24 06:16:20;;;;;;;33.17;13.33;;;;;;;;;;5079846;28;20197;-73
2021/01/24 06:19:27;;;;;;;30.90;12.60;;;;;;;;;;5096034;28;20203;-72
2021/01/24 06:22:35;;;;;;;29.40;13.10;;;;;;;;;;5079745;28;20282;-72
2021/01/24 06:25:44;;;;;;;32.20;12.87;;;;;;;;;;5098392;28;20326;-72
2021/01/24 06:28:50;;;;;;;31.27;13.63;;;;;;;;;;5111797;28;20208;-72
2021/01/24 06:31:56;;;;;;;26.83;11.97;;;;;;;;;;5099295;28;20703;-73
2021/01/24 06:35:15;;;;;;;29.83;12.27;;;;;;;;;;5099145;28;20225;-72
2021/01/24 06:38:30;;;;;;;26.53;11.57;;;;;;;;;;5079094;28;20287;-72
2021/01/24 06:41:43;;;;;;;25.47;11.37;;;;;;;;;;5083542;28;20350;-72
2021/01/24 06:44:48;;;;;;;27.73;11.93;;;;;;;;;;5084825;28;20209;-72
2021/01/24 06:47:53;;;;;;;28.70;12.20;;;;;;;;;;5099116;28;20791;-72
2021/01/24 06:50:57;;;;;;;28.47;11.83;;;;;;;;;;5099237;28;20244;-72
2021/01/24 06:54:02;;;;;;;29.53;12.53;;;;;;;;;;5111694;28;20212;-72
2021/01/24 06:57:09;;;;;;;27.70;12.13;;;;;;;;;;5096354;28;20204;-72
2021/01/24 07:00:17;;;;;;;27.33;11.50;;;;;;;;;;5098838;28;20217;-74
2021/01/24 07:03:22;;;;;;;30.27;11.83;;;;;;;;;;5110806;28;20232;-75
2021/01/24 07:06:33;;;;;;;29.77;12.70;;;;;;;;;;5088646;28;20232;-75
2021/01/24 07:09:42;;;;;;;22.93;10.17;;;;;;;;;;5099219;28;20249;-75
2021/01/24 07:12:48;;;;;;;22.37;10.20;;;;;;;;;;5086822;28;20255;-75
2021/01/24 07:15:53;;;;;;;26.43;10.33;;;;;;;;;;5111610;28;20274;-75
2021/01/24 07:18:58;;;;;;;23.97;10.47;;;;;;;;;;5099257;28;20228;-75
2021/01/24 07:22:05;;;;;;;22.27;10.80;;;;;;;;;;5098271;28;20278;-74
2021/01/24 07:25:10;;;;;;;23.80;10.73;;;;;;;;;;5112621;28;20201;-75
2021/01/24 07:28:16;;;;;;;21.30;10.13;;;;;;;;;;5100413;28;20220;-74
2021/01/24 07:31:21;;;;;;;18.30;8.70;;;;;;;;;;5080443;28;20213;-73
2021/01/24 07:34:27;;;;;;;21.20;9.03;;;;;;;;;;5096393;28;20272;-74
2021/01/24 07:37:31;;;;;;;19.43;8.10;;;;;;;;;;5111825;28;20225;-74
2021/01/24 07:40:36;;;;;;;22.67;9.27;;;;;;;;;;5083959;28;20270;-75
2021/01/24 07:43:43;;;;;;;20.13;8.37;;;;;;;;;;5098210;28;20259;-75
2021/01/24 07:46:47;;;;;;;21.40;9.97;;;;;;;;;;5098930;28;20205;-75
2021/01/24 07:49:52;;;;;;;25.73;11.60;;;;;;;;;;5098783;28;20234;-75
2021/01/24 07:52:57;;;;;;;23.40;10.70;;;;;;;;;;5085960;28;20225;-74
2021/01/24 07:56:02;;;;;;;19.17;9.50;;;;;;;;;;5091105;28;20743;-74
2021/01/24 07:59:08;;;;;;;20.87;9.07;;;;;;;;;;5088147;28;20204;-74
2021/01/24 08:02:13;;;;;;;15.63;7.00;;;;;;;;;;5114876;28;20255;-72
2021/01/24 08:05:17;;;;;;;12.30;5.87;;;;;;;;;;5100993;28;20242;-72
2021/01/24 08:08:22;;;;;;;9.70;5.17;;;;;;;;;;5084637;28;20186;-73
2021/01/24 08:11:27;;;;;;;8.27;3.60;;;;;;;;;;5101770;28;20278;-72
2021/01/24 08:14:32;;;;;;;5.47;2.90;;;;;;;;;;5101592;28;20698;-72
2021/01/24 08:17:38;;;;;;;5.70;3.03;;;;;;;;;;5102334;28;20200;-72
2021/01/24 08:20:42;;;;;;;5.63;2.33;;;;;;;;;;5095981;28;20262;-72
2021/01/24 08:23:47;;;;;;;5.27;2.00;;;;;;;;;;5101958;28;20224;-73
2021/01/24 08:26:51;;;;;;;2.70;1.80;;;;;;;;;;5081643;28;20201;-72
2021/01/24 08:29:57;;;;;;;2.17;1.40;;;;;;;;;;5097664;28;20626;-72
2021/01/24 08:33:03;;;;;;;1.77;1.20;;;;;;;;;;5097338;28;20224;-73
2021/01/24 08:36:16;;;;;;;1.57;1.00;;;;;;;;;;5101473;28;20748;-72
2021/01/24 08:39:23;;;;;;;1.60;1.20;;;;;;;;;;5091330;28;20209;-72
2021/01/24 08:42:42;;;;;;;1.83;1.10;;;;;;;;;;5100720;28;20281;-72
2021/01/24 08:45:48;;;;;;;1.87;1.20;;;;;;;;;;5101519;28;20254;-72
2021/01/24 08:48:59;;;;;;;3.63;1.80;;;;;;;;;;5100818;28;20209;-72
2021/01/24 08:52:04;;;;;;;2.10;1.43;;;;;;;;;;5101174;28;20229;-71
2021/01/24 08:55:10;;;;;;;2.30;1.30;;;;;;;;;;5101388;28;20301;-72
2021/01/24 08:58:24;;;;;;;1.97;1.20;;;;;;;;;;5100637;28;20221;-71
2021/01/24 09:01:30;;;;;;;2.53;1.13;;;;;;;;;;5100913;28;20240;-76
2021/01/24 09:04:35;;;;;;;1.17;0.97;;;;;;;;;;5122059;27;20204;-75
2021/01/24 09:07:41;;;;;;;2.97;1.30;;;;;;;;;;5081780;28;20371;-75
2021/01/24 09:10:56;;;;;;;3.90;1.53;;;;;;;;;;5085856;28;20689;-74
2021/01/24 09:14:00;;;;;;;2.30;1.30;;;;;;;;;;5116929;28;20196;-71
2021/01/24 09:17:08;;;;;;;1.37;0.93;;;;;;;;;;5105475;28;20307;-74
2021/01/24 09:20:13;;;;;;;2.10;1.33;;;;;;;;;;5117622;28;20262;-72
2021/01/24 09:23:18;;;;;;;2.27;1.07;;;;;;;;;;5089817;28;20286;-71
2021/01/24 09:26:23;;;;;;;2.10;1.10;;;;;;;;;;5101418;28;20692;-71
2021/01/24 09:29:27;;;;;;;1.37;1.00;;;;;;;;;;5100618;28;20703;-74
2021/01/24 09:32:33;;;;;;;1.63;0.90;;;;;;;;;;5103220;28;20334;-71
2021/01/24 09:35:38;;;;;;;1.37;1.00;;;;;;;;;;5101678;28;20233;-71
2021/01/24 09:38:42;;;;;;;2.90;1.20;;;;;;;;;;5104135;28;20265;-74
2021/01/24 09:41:47;;;;;;;2.47;1.17;;;;;;;;;;5110020;28;20247;-72
2021/01/24 09:44:52;;;;;;;2.30;1.43;;;;;;;;;;5100174;28;20204;-74
2021/01/24 09:47:57;;;;;;;2.10;1.10;;;;;;;;;;5093004;28;20247;-76
2021/01/24 09:51:02;;;;;;;2.33;1.33;;;;;;;;;;5096544;28;20274;-72
2021/01/24 09:54:07;;;;;;;3.53;1.50;;;;;;;;;;5095113;28;20232;-73
2021/01/24 09:57:12;;;;;;;2.83;1.20;;;;;;;;;;5112120;28;20192;-73
2021/01/24 10:00:16;;;;;;;3.07;1.20;;;;;;;;;;5087999;28;20231;-73
2021/01/24 10:03:23;;;;;;;4.23;1.40;;;;;;;;;;5087443;28;20593;-73
2021/01/24 10:06:28;;;;;;;1.70;1.17;;;;;;;;;;5111738;28;20201;-73
2021/01/24 10:09:33;;;;;;;3.13;0.93;;;;;;;;;;5106347;28;20280;-72
2021/01/24 10:12:37;;;;;;;4.93;1.67;;;;;;;;;;5107345;28;20312;-73
2021/01/24 10:15:42;;;;;;;2.43;1.20;;;;;;;;;;5086866;28;20244;-74
2021/01/24 10:18:48;;;;;;;3.00;1.10;;;;;;;;;;5102538;28;20208;-77
2021/01/24 10:21:53;;;;;;;3.50;1.40;;;;;;;;;;5092671;28;20247;-76
2021/01/24 10:24:57;;;;;;;3.37;1.30;;;;;;;;;;5094031;28;20200;-76
2021/01/24 10:28:02;;;;;;;2.73;1.30;;;;;;;;;;5083346;28;20247;-76
2021/01/24 10:31:07;;;;;;;3.87;2.03;;;;;;;;;;5099639;28;20221;-77
2021/01/24 10:34:14;;;;;;;3.97;1.60;;;;;;;;;;5097714;28;20685;-76
2021/01/24 10:37:19;;;;;;;5.20;2.10;;;;;;;;;;5092834;28;20197;-76
2021/01/24 10:40:23;;;;;;;5.77;1.67;;;;;;;;;;5109738;27;20220;-73
2021/01/24 10:43:28;;;;;;;3.17;1.63;;;;;;;;;;5097840;28;20274;-75
2021/01/24 10:46:34;;;;;;;3.57;1.50;;;;;;;;;;5086430;28;20279;-76
2021/01/24 10:49:39;;;;;;;4.53;1.57;;;;;;;;;;5098413;28;20192;-75
2021/01/24 10:52:44;;;;;;;3.13;1.33;;;;;;;;;;5089808;28;20366;-75
2021/01/24 10:55:48;;;;;;;2.90;1.50;;;;;;;;;;5089592;28;20270;-74
2021/01/24 10:58:53;;;;;;;3.20;1.50;;;;;;;;;;5096561;28;20216;-76
2021/01/24 11:01:57;;;;;;;3.13;1.70;;;;;;;;;;5099192;28;20227;-77
2021/01/24 11:05:04;;;;;;;2.30;1.53;;;;;;;;;;5097671;28;20216;-75
2021/01/24 11:08:08;;;;;;;2.87;1.47;;;;;;;;;;5106739;28;20239;-75
2021/01/24 11:11:13;;;;;;;2.43;1.40;;;;;;;;;;5095211;28;20212;-75
2021/01/24 11:14:22;;;;;;;4.17;1.70;;;;;;;;;;5094702;28;20229;-76
2021/01/24 11:17:30;;;;;;;2.57;1.60;;;;;;;;;;5091332;28;20205;-75
2021/01/24 11:20:35;;;;;;;3.27;1.90;;;;;;;;;;5084299;28;20570;-74
2021/01/24 11:23:40;;;;;;;2.30;1.77;;;;;;;;;;5095447;28;20335;-75
2021/01/24 11:26:44;;;;;;;2.97;1.80;;;;;;;;;;5095627;28;20632;-75
2021/01/24 11:29:52;;;;;;;2.00;1.20;;;;;;;;;;5083585;28;20244;-75
2021/01/24 11:32:57;;;;;;;8.53;1.73;;;;;;;;;;5099124;28;20236;-75
2021/01/24 11:36:02;;;;;;;2.53;1.30;;;;;;;;;;5102125;28;20268;-75
2021/01/24 11:39:07;;;;;;;2.90;1.50;;;;;;;;;;5099579;28;20219;-75
2021/01/24 11:42:12;;;;;;;1.93;1.30;;;;;;;;;;5101469;28;20609;-75
2021/01/24 11:45:16;;;;;;;4.80;2.03;;;;;;;;;;5096102;28;20294;-75
2021/01/24 11:48:21;;;;;;;5.63;1.80;;;;;;;;;;5102515;28;20730;-74
2021/01/24 11:51:27;;;;;;;2.43;1.40;;;;;;;;;;5102153;28;20280;-75
2021/01/24 11:54:31;;;;;;;2.60;1.10;;;;;;;;;;5100959;28;20200;-75
2021/01/24 11:57:36;;;;;;;3.27;1.27;;;;;;;;;;5081855;28;20205;-75
2021/01/24 12:00:40;;;;;;;2.53;1.43;;;;;;;;;;5088889;28;20778;-75
2021/01/24 12:03:44;;;;;;;3.40;1.20;;;;;;;;;;5101517;28;20244;-75
2021/01/24 12:06:50;;;;;;;3.93;1.33;;;;;;;;;;5115889;28;20664;-75
2021/01/24 12:09:55;;;;;;;2.47;1.20;;;;;;;;;;5102859;28;20268;-76
2021/01/24 12:13:00;;;;;;;4.63;1.13;;;;;;;;;;5109305;28;20237;-76
2021/01/24 12:16:04;;;;;;;2.03;1.30;;;;;;;;;;5101982;28;20233;-76
2021/01/24 12:19:09;;;;;;;1.90;1.20;;;;;;;;;;5102114;28;20205;-76
2021/01/24 12:22:14;;;;;;;4.27;1.37;;;;;;;;;;5114921;28;20224;-76
2021/01/24 12:25:19;;;;;;;4.53;1.93;;;;;;;;;;5101967;28;20584;-76
2021/01/24 12:28:24;;;;;;;2.70;1.60;;;;;;;;;;5105480;28;20221;-76
2021/01/24 12:31:28;;;;;;;1.97;1.20;;;;;;;;;;5081228;28;20754;-76
2021/01/24 12:34:33;;;;;;;3.47;1.60;;;;;;;;;;5081651;28;20201;-76
2021/01/24 12:37:38;;;;;;;3.07;1.30;;;;;;;;;;5097066;28;20205;-76
2021/01/24 12:40:43;;;;;;;4.23;1.27;;;;;;;;;;5114623;28;20512;-76
2021/01/24 12:43:48;;;;;;;4.43;1.37;;;;;;;;;;5094571;28;20252;-76
2021/01/24 12:46:52;;;;;;;2.67;1.63;;;;;;;;;;5080230;28;20259;-76
2021/01/24 12:49:57;;;;;;;3.93;1.60;;;;;;;;;;5094361;28;20252;-76
2021/01/24 12:53:03;;;;;;;2.27;1.50;;;;;;;;;;5064208;28;20653;-76
2021/01/24 12:56:07;;;;;;;2.73;1.53;;;;;;;;;;5094425;28;20237;-76
2021/01/24 12:59:12;;;;;;;5.57;1.80;;;;;;;;;;5093659;28;20197;-76
2021/01/24 13:02:17;;;;;;;3.60;1.90;;;;;;;;;;5098877;28;20220;-76
2021/01/24 13:05:22;;;;;;;7.17;2.30;;;;;;;;;;5094904;28;20239;-76
2021/01/24 13:08:27;;;;;;;6.27;2.03;;;;;;;;;;5103189;28;20703;-76
2021/01/24 13:11:33;;;;;;;3.37;1.67;;;;;;;;;;5095126;28;20227;-76
2021/01/24 13:14:43;;;;;;;3.37;1.93;;;;;;;;;;5082104;28;20351;-77
2021/01/24 13:17:51;;;;;;;1.90;1.27;;;;;;;;;;5109309;28;20197;-77
2021/01/24 13:20:56;;;;;;;5.03;1.90;;;;;;;;;;5111885;28;20286;-76
2021/01/24 13:24:08;;;;;;;2.17;1.33;;;;;;;;;;5110660;27;20713;-75
2021/01/24 13:27:13;;;;;;;3.47;1.90;;;;;;;;;;5099966;28;20247;-76
2021/01/24 13:30:18;;;;;;;8.47;2.80;;;;;;;;;;5102132;28;20201;-76
2021/01/24 13:33:22;;;;;;;2.43;1.60;;;;;;;;;;5090505;28;20224;-75
2021/01/24 13:36:27;;;;;;;2.63;1.60;;;;;;;;;;5093445;28;20262;-76
2021/01/24 13:39:33;;;;;;;3.80;1.40;;;;;;;;;;5112330;28;20216;-77
2021/01/24 13:42:37;;;;;;;4.27;1.70;;;;;;;;;;5094787;28;20244;-77
2021/01/24 13:45:42;;;;;;;4.63;1.97;;;;;;;;;;5092368;28;20701;-76
2021/01/24 13:48:46;;;;;;;3.17;1.40;;;;;;;;;;5111544;28;20212;-76
2021/01/24 13:51:51;;;;;;;3.63;1.50;;;;;;;;;;5095343;28;20238;-76
2021/01/24 13:54:57;;;;;;;5.77;1.80;;;;;;;;;;5095040;28;20216;-76
2021/01/24 13:58:01;;;;;;;4.37;1.50;;;;;;;;;;5099097;28;20209;-77
2021/01/24 14:01:06;;;;;;;5.87;2.00;;;;;;;;;;5081200;28;20208;-75
2021/01/24 14:04:11;;;;;;;4.43;1.70;;;;;;;;;;5100201;28;20579;-75
2021/01/24 14:07:19;;;;;;;2.20;1.40;;;;;;;;;;5093220;28;20337;-76
2021/01/24 14:10:27;;;;;;;3.27;1.40;;;;;;;;;;5111579;28;20204;-74
2021/01/24 14:13:32;;;;;;;5.27;1.40;;;;;;;;;;5094166;27;20232;-74
2021/01/24 14:16:36;;;;;;;3.47;1.50;;;;;;;;;;5110731;28;20233;-75
2021/01/24 14:19:41;;;;;;;3.50;1.30;;;;;;;;;;5096689;28;20304;-78
2021/01/24 14:22:46;;;;;;;4.33;1.30;;;;;;;;;;5089003;28;20324;-76
2021/01/24 14:25:52;;;;;;;6.27;1.60;;;;;;;;;;5088811;28;20200;-76
2021/01/24 14:28:57;;;;;;;3.10;1.47;;;;;;;;;;5096934;28;20262;-76
2021/01/24 14:32:02;;;;;;;3.57;1.37;;;;;;;;;;5089041;28;20225;-74
2021/01/24 14:35:07;;;;;;;2.00;1.20;;;;;;;;;;5091917;28;20294;-74
2021/01/24 14:38:11;;;;;;;6.40;1.70;;;;;;;;;;5096965;28;20228;-78
2021/01/24 14:41:17;;;;;;;3.67;1.20;;;;;;;;;;5100733;27;20203;-79
2021/01/24 14:44:22;;;;;;;3.27;1.40;;;;;;;;;;5097096;28;20291;-79
2021/01/24 14:47:27;;;;;;;2.47;1.40;;;;;;;;;;5095589;28;20770;-79
2021/01/24 14:50:32;;;;;;;4.53;1.40;;;;;;;;;;5097628;28;20225;-79
2021/01/24 14:53:37;;;;;;;2.30;1.40;;;;;;;;;;5098009;28;20260;-81
2021/01/24 14:56:42;;;;;;;2.67;1.60;;;;;;;;;;5095491;28;20277;-82
2021/01/24 14:59:47;;;;;;;4.30;1.40;;;;;;;;;;5089109;28;20395;-75
2021/01/24 15:02:52;;;;;;;3.87;1.50;;;;;;;;;;5098582;28;20372;-79
2021/01/24 15:05:57;;;;;;;4.87;2.20;;;;;;;;;;5099368;28;20188;-78
2021/01/24 15:09:02;;;;;;;4.40;1.80;;;;;;;;;;5099380;28;20278;-75
2021/01/24 15:12:07;;;;;;;5.27;1.90;;;;;;;;;;5094668;28;20736;-78
2021/01/24 15:15:12;;;;;;;3.70;1.50;;;;;;;;;;5097351;28;20712;-77
2021/01/24 15:18:17;;;;;;;4.93;2.17;;;;;;;;;;5113432;28;20240;-77
2021/01/24 15:21:22;;;;;;;3.67;1.53;;;;;;;;;;5103964;28;20265;-78
2021/01/24 15:24:27;;;;;;;3.63;1.70;;;;;;;;;;5124045;28;20251;-77
2021/01/24 15:27:33;;;;;;;4.33;1.87;;;;;;;;;;5099951;28;20739;-77
2021/01/24 15:30:39;;;;;;;4.50;1.83;;;;;;;;;;5095930;28;20243;-77
2021/01/24 15:33:44;;;;;;;4.10;1.67;;;;;;;;;;5096407;28;20762;-77
2021/01/24 15:36:49;;;;;;;7.90;2.20;;;;;;;;;;5100001;28;20305;-78
2021/01/24 15:39:54;;;;;;;3.10;1.60;;;;;;;;;;5099355;28;20267;-78
2021/01/24 15:43:00;;;;;;;3.60;1.67;;;;;;;;;;5080502;28;20256;-79
2021/01/24 15:46:04;;;;;;;12.10;1.70;;;;;;;;;;5094663;28;20212;-78
2021/01/24 15:49:09;;;;;;;5.47;1.70;;;;;;;;;;5112233;28;20563;-77
2021/01/24 15:52:13;;;;;;;4.43;1.60;;;;;;;;;;5079164;28;20796;-78
2021/01/24 15:55:18;;;;;;;3.00;1.60;;;;;;;;;;5091447;28;20217;-78
2021/01/24 15:58:24;;;;;;;3.67;1.73;;;;;;;;;;5091315;28;20307;-78
2021/01/24 16:01:29;;;;;;;5.13;1.70;;;;;;;;;;5099922;28;20665;-78
2021/01/24 16:04:33;;;;;;;4.17;1.90;;;;;;;;;;5096772;28;20244;-78
2021/01/24 16:07:38;;;;;;;2.10;1.13;;;;;;;;;;5095811;28;20216;-80
2021/01/24 16:10:42;;;;;;;5.73;1.73;;;;;;;;;;5092850;28;20209;-77
2021/01/24 16:13:48;;;;;;;4.83;1.90;;;;;;;;;;5096377;28;20213;-77
2021/01/24 16:16:52;;;;;;;2.97;1.60;;;;;;;;;;5099069;28;20650;-76
2021/01/24 16:19:57;;;;;;;4.37;2.30;;;;;;;;;;5091360;28;20260;-76
2021/01/24 16:23:02;;;;;;;4.30;2.20;;;;;;;;;;5088356;28;20241;-77
2021/01/24 16:26:07;;;;;;;3.87;2.00;;;;;;;;;;5093799;28;20208;-77
2021/01/24 16:29:12;;;;;;;9.03;2.00;;;;;;;;;;5099828;28;20200;-76
2021/01/24 16:32:16;;;;;;;7.00;1.40;;;;;;;;;;5099129;28;20236;-80
2021/01/24 16:35:22;;;;;;;5.37;1.80;;;;;;;;;;5115421;28;20283;-79
2021/01/24 16:38:26;;;;;;;3.20;1.67;;;;;;;;;;5102095;28;20208;-78
2021/01/24 16:41:31;;;;;;;3.73;1.77;;;;;;;;;;5090971;28;20209;-79
2021/01/24 16:44:37;;;;;;;5.43;2.90;;;;;;;;;;5100742;27;20215;-78
2021/01/24 16:47:42;;;;;;;7.03;3.13;;;;;;;;;;5110638;27;20586;-78
2021/01/24 16:50:51;;;;;;;7.53;2.80;;;;;;;;;;5100522;28;20247;-81
2021/01/24 16:53:55;;;;;;;7.73;2.53;;;;;;;;;;5111801;28;20236;-80
2021/01/24 16:57:01;;;;;;;6.70;3.40;;;;;;;;;;5100777;28;20235;-80
2021/01/24 17:00:07;;;;;;;13.23;5.47;;;;;;;;;;5120165;27;20207;-80
2021/01/24 17:03:13;;;;;;;23.00;7.00;;;;;;;;;;5088278;28;20229;-81
2021/01/24 17:06:18;;;;;;;14.13;4.30;;;;;;;;;;5104065;28;20204;-80
2021/01/24 17:09:23;;;;;;;8.50;3.20;;;;;;;;;;5119192;28;20327;-80
2021/01/24 17:12:28;;;;;;;7.77;3.60;;;;;;;;;;5124818;28;20241;-78
2021/01/24 17:15:34;;;;;;;14.50;4.50;;;;;;;;;;5118376;28;20238;-82
2021/01/24 17:18:39;;;;;;;6.27;2.53;;;;;;;;;;5104475;28;20249;-79
2021/01/24 17:21:45;;;;;;;5.47;2.50;;;;;;;;;;5103730;28;20259;-80
2021/01/24 17:24:50;;;;;;;14.87;4.50;;;;;;;;;;5104854;28;20208;-81
2021/01/24 17:27:54;;;;;;;6.20;2.63;;;;;;;;;;5097202;28;20205;-81
2021/01/24 17:31:00;;;;;;;6.57;2.90;;;;;;;;;;5113673;27;20273;-80
2021/01/24 17:34:06;;;;;;;5.37;2.07;;;;;;;;;;5129480;28;20270;-81
2021/01/24 17:37:11;;;;;;;3.63;2.00;;;;;;;;;;5109430;28;20232;-79
2021/01/24 17:40:15;;;;;;;7.73;3.00;;;;;;;;;;5099371;28;20228;-80
2021/01/24 17:43:20;;;;;;;7.07;2.37;;;;;;;;;;5093096;28;20233;-80
2021/01/24 17:46:26;;;;;;;4.80;2.10;;;;;;;;;;5097817;28;20220;-80
2021/01/24 17:49:30;;;;;;;7.27;2.10;;;;;;;;;;5095893;28;20208;-78
2021/01/24 17:52:36;;;;;;;4.37;2.07;;;;;;;;;;5108253;28;20314;-80
2021/01/24 17:55:41;;;;;;;5.63;1.77;;;;;;;;;;5088799;28;20324;-78
2021/01/24 17:58:45;;;;;;;5.53;2.23;;;;;;;;;;5098742;28;20278;-76
2021/01/24 18:01:51;;;;;;;7.30;3.10;;;;;;;;;;5100943;28;20240;-79
2021/01/24 18:04:56;;;;;;;4.30;2.20;;;;;;;;;;5091009;28;20205;-79
2021/01/24 18:08:00;;;;;;;7.67;3.40;;;;;;;;;;5109650;28;20209;-78
2021/01/24 18:11:06;;;;;;;9.60;3.80;;;;;;;;;;5102846;28;20259;-75
2021/01/24 18:14:11;;;;;;;10.43;4.43;;;;;;;;;;5102789;28;20212;-76
2021/01/24 18:17:17;;;;;;;17.47;5.07;;;;;;;;;;5102249;28;20223;-76